Potosi, Bolivia
Current Conditions -  °F | °C
As of 10:00 AM on Thursday 30 Oct 2014 (Local Time) from SLSU Reporting Station
Few Clouds Few Clouds  
Wind Chill: 72°   Ceiling: Unl
Heat Index: 72°   Visibility: 6mi
Dew Point: 50°   Wind: 6mph
Humidity: 46%   Direction: 90°E
Pressure: 30.24"   Gusts: NA
Location:  19.57°S, 65.75°W
Report Text: SLSU 301400Z 09005KT 9999 FEW023 22/10 Q1024
Loading
Personal Weather Stations






























Interactive Weather Map
Tropical Storm Tracking
New forecast layout! Learn more

10-Day Weather Forecast

Advertisements
Track Severe Weather on mobile